sensor_id;sensor_type;location;lat;lon;timestamp;temperature;humidity
11264;DHT22;5689;48.798;9.070;2023-04-05T00:02:20;0.80;99.00
11264;DHT22;5689;48.798;9.070;2023-04-05T00:04:51;0.90;98.60
11264;DHT22;5689;48.798;9.070;2023-04-05T00:07:23;0.80;98.50
11264;DHT22;5689;48.798;9.070;2023-04-05T00:09:52;0.80;98.50
11264;DHT22;5689;48.798;9.070;2023-04-05T00:12:20;0.70;98.60
11264;DHT22;5689;48.798;9.070;2023-04-05T00:14:48;0.70;98.90
11264;DHT22;5689;48.798;9.070;2023-04-05T00:17:18;0.80;98.80
11264;DHT22;5689;48.798;9.070;2023-04-05T00:19:46;0.80;98.80
11264;DHT22;5689;48.798;9.070;2023-04-05T00:22:17;0.70;98.80
11264;DHT22;5689;48.798;9.070;2023-04-05T00:24:51;0.70;99.00
11264;DHT22;5689;48.798;9.070;2023-04-05T00:27:19;0.80;99.20
11264;DHT22;5689;48.798;9.070;2023-04-05T00:29:47;0.70;99.10
11264;DHT22;5689;48.798;9.070;2023-04-05T00:32:15;0.60;99.20
11264;DHT22;5689;48.798;9.070;2023-04-05T00:34:45;0.50;99.50
11264;DHT22;5689;48.798;9.070;2023-04-05T00:37:13;0.60;99.90
11264;DHT22;5689;48.798;9.070;2023-04-05T00:39:41;0.50;99.90
11264;DHT22;5689;48.798;9.070;2023-04-05T00:42:09;0.60;99.90
11264;DHT22;5689;48.798;9.070;2023-04-05T00:44:37;0.50;99.90
11264;DHT22;5689;48.798;9.070;2023-04-05T00:47:06;0.50;99.90
11264;DHT22;5689;48.798;9.070;2023-04-05T00:49:35;0.50;99.90
11264;DHT22;5689;48.798;9.070;2023-04-05T00:52:05;0.70;99.90
11264;DHT22;5689;48.798;9.070;2023-04-05T00:54:34;0.70;99.90
11264;DHT22;5689;48.798;9.070;2023-04-05T00:57:03;0.60;99.90
11264;DHT22;5689;48.798;9.070;2023-04-05T00:59:32;0.50;99.90
11264;DHT22;5689;48.798;9.070;2023-04-05T01:02:07;0.50;99.90
11264;DHT22;5689;48.798;9.070;2023-04-05T01:04:40;0.50;99.90
11264;DHT22;5689;48.798;9.070;2023-04-05T01:07:24;0.40;99.90
11264;DHT22;5689;48.798;9.070;2023-04-05T01:09:57;0.30;99.90
11264;DHT22;5689;48.798;9.070;2023-04-05T01:12:28;0.40;99.90
11264;DHT22;5689;48.798;9.070;2023-04-05T01:14:59;0.30;99.90
11264;DHT22;5689;48.798;9.070;2023-04-05T01:17:29;0.20;99.90
11264;DHT22;5689;48.798;9.070;2023-04-05T01:20:05;0.30;99.90
11264;DHT22;5689;48.798;9.070;2023-04-05T01:23:04;0.60;99.90
11264;DHT22;5689;48.798;9.070;2023-04-05T01:26:03;0.40;99.90
11264;DHT22;5689;48.798;9.070;2023-04-05T01:28:48;0.30;99.90
11264;DHT22;5689;48.798;9.070;2023-04-05T01:31:29;0.30;99.90
11264;DHT22;5689;48.798;9.070;2023-04-05T01:34:05;0.20;99.90
11264;DHT22;5689;48.798;9.070;2023-04-05T01:36:39;0.00;99.90
11264;DHT22;5689;48.798;9.070;2023-04-05T01:39:12;-0.20;99.90
11264;DHT22;5689;48.798;9.070;2023-04-05T01:41:40;-0.20;99.90
11264;DHT22;5689;48.798;9.070;2023-04-05T01:44:08;-0.20;99.90
11264;DHT22;5689;48.798;9.070;2023-04-05T01:46:39;-0.20;99.90
11264;DHT22;5689;48.798;9.070;2023-04-05T01:49:07;-0.20;99.90
11264;DHT22;5689;48.798;9.070;2023-04-05T01:51:35;-0.10;99.90
11264;DHT22;5689;48.798;9.070;2023-04-05T01:54:07;0.00;99.90
11264;DHT22;5689;48.798;9.070;2023-04-05T01:56:35;0.00;99.90
11264;DHT22;5689;48.798;9.070;2023-04-05T01:59:03;-0.10;99.90
11264;DHT22;5689;48.798;9.070;2023-04-05T02:01:32;-0.10;99.90
11264;DHT22;5689;48.798;9.070;2023-04-05T02:04:01;0.00;99.90
11264;DHT22;5689;48.798;9.070;2023-04-05T02:06:29;-0.10;99.90
11264;DHT22;5689;48.798;9.070;2023-04-05T02:09:00;-0.10;99.90
11264;DHT22;5689;48.798;9.070;2023-04-05T02:11:28;-0.20;99.90
11264;DHT22;5689;48.798;9.070;2023-04-05T02:13:57;-0.10;99.90
11264;DHT22;5689;48.798;9.070;2023-04-05T02:16:25;0.00;99.90
11264;DHT22;5689;48.798;9.070;2023-04-05T02:18:54;-0.10;99.90
11264;DHT22;5689;48.798;9.070;2023-04-05T02:21:25;-0.30;99.90
11264;DHT22;5689;48.798;9.070;2023-04-05T02:23:53;-0.20;99.90
11264;DHT22;5689;48.798;9.070;2023-04-05T02:26:21;-0.20;99.90
11264;DHT22;5689;48.798;9.070;2023-04-05T02:28:49;-0.40;99.90
11264;DHT22;5689;48.798;9.070;2023-04-05T02:31:20;-0.40;99.90
11264;DHT22;5689;48.798;9.070;2023-04-05T02:33:48;-0.20;99.90
11264;DHT22;5689;48.798;9.070;2023-04-05T02:36:16;-0.20;99.90
11264;DHT22;5689;48.798;9.070;2023-04-05T02:38:46;-0.30;99.90
11264;DHT22;5689;48.798;9.070;2023-04-05T02:41:14;-0.30;99.90
11264;DHT22;5689;48.798;9.070;2023-04-05T02:43:42;-0.10;99.90
11264;DHT22;5689;48.798;9.070;2023-04-05T02:46:10;0.00;99.90
11264;DHT22;5689;48.798;9.070;2023-04-05T02:48:40;-0.10;99.90
11264;DHT22;5689;48.798;9.070;2023-04-05T02:51:13;-0.30;99.90
11264;DHT22;5689;48.798;9.070;2023-04-05T02:53:41;-0.50;99.90
11264;DHT22;5689;48.798;9.070;2023-04-05T02:56:14;-0.50;99.90
11264;DHT22;5689;48.798;9.070;2023-04-05T02:58:45;-0.60;99.90
11264;DHT22;5689;48.798;9.070;2023-04-05T03:01:20;-0.80;99.90
11264;DHT22;5689;48.798;9.070;2023-04-05T03:03:49;-0.80;99.90
11264;DHT22;5689;48.798;9.070;2023-04-05T03:06:17;-0.80;99.90
11264;DHT22;5689;48.798;9.070;2023-04-05T03:08:48;-0.60;99.90
11264;DHT22;5689;48.798;9.070;2023-04-05T03:11:21;-0.60;99.90
11264;DHT22;5689;48.798;9.070;2023-04-05T03:13:56;-0.70;99.90
11264;DHT22;5689;48.798;9.070;2023-04-05T03:16:45;-0.90;99.90
11264;DHT22;5689;48.798;9.070;2023-04-05T03:19:22;-0.80;99.90
11264;DHT22;5689;48.798;9.070;2023-04-05T03:21:57;-1.10;99.90
11264;DHT22;5689;48.798;9.070;2023-04-05T03:24:30;-1.20;99.90
11264;DHT22;5689;48.798;9.070;2023-04-05T03:27:02;-1.20;99.90
11264;DHT22;5689;48.798;9.070;2023-04-05T03:29:38;-1.30;99.90
11264;DHT22;5689;48.798;9.070;2023-04-05T03:32:12;-1.20;99.90
11264;DHT22;5689;48.798;9.070;2023-04-05T03:34:47;-1.10;99.90
11264;DHT22;5689;48.798;9.070;2023-04-05T03:37:16;-1.20;99.90
11264;DHT22;5689;48.798;9.070;2023-04-05T03:39:52;-1.20;99.90
11264;DHT22;5689;48.798;9.070;2023-04-05T03:42:22;-1.00;99.90
11264;DHT22;5689;48.798;9.070;2023-04-05T03:44:52;-1.10;99.90
11264;DHT22;5689;48.798;9.070;2023-04-05T03:47:20;-1.10;99.90
11264;DHT22;5689;48.798;9.070;2023-04-05T03:49:50;-1.20;99.90
11264;DHT22;5689;48.798;9.070;2023-04-05T03:52:18;-1.40;99.90
11264;DHT22;5689;48.798;9.070;2023-04-05T03:54:46;-1.50;99.90
11264;DHT22;5689;48.798;9.070;2023-04-05T03:57:19;-1.50;99.90
11264;DHT22;5689;48.798;9.070;2023-04-05T03:59:50;-1.50;99.90
11264;DHT22;5689;48.798;9.070;2023-04-05T04:02:18;-1.60;99.90
11264;DHT22;5689;48.798;9.070;2023-04-05T04:04:46;-1.60;99.90
11264;DHT22;5689;48.798;9.070;2023-04-05T04:07:14;-1.30;99.90
11264;DHT22;5689;48.798;9.070;2023-04-05T04:09:43;-1.10;99.90
11264;DHT22;5689;48.798;9.070;2023-04-05T04:12:11;-1.30;99.90
11264;DHT22;5689;48.798;9.070;2023-04-05T04:14:50;-1.60;99.90
11264;DHT22;5689;48.798;9.070;2023-04-05T04:17:44;-1.80;99.90
11264;DHT22;5689;48.798;9.070;2023-04-05T04:20:27;-1.80;99.90
11264;DHT22;5689;48.798;9.070;2023-04-05T04:23:05;-1.90;99.90
11264;DHT22;5689;48.798;9.070;2023-04-05T04:25:53;-1.90;99.90
11264;DHT22;5689;48.798;9.070;2023-04-05T04:28:40;-2.00;99.90
11264;DHT22;5689;48.798;9.070;2023-04-05T04:31:22;-2.00;99.90
11264;DHT22;5689;48.798;9.070;2023-04-05T04:33:56;-2.10;99.90
11264;DHT22;5689;48.798;9.070;2023-04-05T04:36:40;-2.10;99.90
11264;DHT22;5689;48.798;9.070;2023-04-05T04:39:22;-2.10;99.90
11264;DHT22;5689;48.798;9.070;2023-04-05T04:42:15;-2.10;99.90
11264;DHT22;5689;48.798;9.070;2023-04-05T04:45:05;-1.90;99.90
11264;DHT22;5689;48.798;9.070;2023-04-05T04:47:53;-1.90;99.90
11264;DHT22;5689;48.798;9.070;2023-04-05T04:50:34;-1.80;99.90
11264;DHT22;5689;48.798;9.070;2023-04-05T04:53:03;-1.90;99.90
11264;DHT22;5689;48.798;9.070;2023-04-05T04:55:31;-1.80;99.90
11264;DHT22;5689;48.798;9.070;2023-04-05T04:58:01;-1.80;99.90
11264;DHT22;5689;48.798;9.070;2023-04-05T05:00:37;-2.00;99.90
11264;DHT22;5689;48.798;9.070;2023-04-05T05:03:07;-2.10;99.90
11264;DHT22;5689;48.798;9.070;2023-04-05T05:05:41;-2.20;99.90
11264;DHT22;5689;48.798;9.070;2023-04-05T05:11:05;-2.30;99.90
11264;DHT22;5689;48.798;9.070;2023-04-05T05:13:33;-2.00;99.90
11264;DHT22;5689;48.798;9.070;2023-04-05T05:16:04;-2.00;99.90
11264;DHT22;5689;48.798;9.070;2023-04-05T05:18:36;-2.00;99.90
11264;DHT22;5689;48.798;9.070;2023-04-05T05:21:05;-1.80;99.90
11264;DHT22;5689;48.798;9.070;2023-04-05T05:23:33;-1.50;99.90
11264;DHT22;5689;48.798;9.070;2023-04-05T05:26:02;-1.40;99.90
11264;DHT22;5689;48.798;9.070;2023-04-05T05:28:30;-1.50;99.90
11264;DHT22;5689;48.798;9.070;2023-04-05T05:30:58;-1.50;99.90
11264;DHT22;5689;48.798;9.070;2023-04-05T05:33:27;-1.50;99.90
11264;DHT22;5689;48.798;9.070;2023-04-05T05:35:57;-1.20;99.90
11264;DHT22;5689;48.798;9.070;2023-04-05T05:38:25;-1.00;99.90
11264;DHT22;5689;48.798;9.070;2023-04-05T05:40:56;-0.70;99.90
11264;DHT22;5689;48.798;9.070;2023-04-05T05:43:24;-0.40;99.90
11264;DHT22;5689;48.798;9.070;2023-04-05T05:45:54;-0.10;99.90
11264;DHT22;5689;48.798;9.070;2023-04-05T05:48:23;0.30;99.90
11264;DHT22;5689;48.798;9.070;2023-04-05T05:50:51;0.90;99.90
11264;DHT22;5689;48.798;9.070;2023-04-05T05:53:21;1.20;99.90
11264;DHT22;5689;48.798;9.070;2023-04-05T05:55:49;2.00;99.90
11264;DHT22;5689;48.798;9.070;2023-04-05T05:58:17;3.10;99.90
11264;DHT22;5689;48.798;9.070;2023-04-05T06:00:45;3.70;99.80
11264;DHT22;5689;48.798;9.070;2023-04-05T06:03:15;3.90;98.40
11264;DHT22;5689;48.798;9.070;2023-04-05T06:05:50;4.00;97.90
11264;DHT22;5689;48.798;9.070;2023-04-05T06:08:18;4.50;96.70
11264;DHT22;5689;48.798;9.070;2023-04-05T06:10:47;4.80;95.50
11264;DHT22;5689;48.798;9.070;2023-04-05T06:13:16;5.30;94.20
11264;DHT22;5689;48.798;9.070;2023-04-05T06:15:46;5.10;93.60
11264;DHT22;5689;48.798;9.070;2023-04-05T06:18:16;5.60;93.80
11264;DHT22;5689;48.798;9.070;2023-04-05T06:20:46;6.40;91.50
11264;DHT22;5689;48.798;9.070;2023-04-05T06:23:14;6.30;91.60
11264;DHT22;5689;48.798;9.070;2023-04-05T06:25:42;6.00;91.40
11264;DHT22;5689;48.798;9.070;2023-04-05T06:28:12;5.80;91.40
11264;DHT22;5689;48.798;9.070;2023-04-05T06:30:40;5.50;91.90
11264;DHT22;5689;48.798;9.070;2023-04-05T06:33:08;5.50;92.50
11264;DHT22;5689;48.798;9.070;2023-04-05T06:35:36;6.30;91.20
11264;DHT22;5689;48.798;9.070;2023-04-05T06:38:04;6.60;90.30
11264;DHT22;5689;48.798;9.070;2023-04-05T06:40:32;6.50;91.00
11264;DHT22;5689;48.798;9.070;2023-04-05T06:43:00;6.80;90.50
11264;DHT22;5689;48.798;9.070;2023-04-05T06:45:32;6.20;91.20
11264;DHT22;5689;48.798;9.070;2023-04-05T06:48:03;6.00;91.40
11264;DHT22;5689;48.798;9.070;2023-04-05T06:50:32;5.80;91.60
11264;DHT22;5689;48.798;9.070;2023-04-05T06:53:01;5.30;92.90
11264;DHT22;5689;48.798;9.070;2023-04-05T06:55:29;6.70;91.70
11264;DHT22;5689;48.798;9.070;2023-04-05T06:57:57;8.30;90.40
11264;DHT22;5689;48.798;9.070;2023-04-05T07:00:25;8.40;85.80
11264;DHT22;5689;48.798;9.070;2023-04-05T07:02:55;9.00;84.10
11264;DHT22;5689;48.798;9.070;2023-04-05T07:05:23;8.60;83.90
11264;DHT22;5689;48.798;9.070;2023-04-05T07:07:51;9.30;82.80
11264;DHT22;5689;48.798;9.070;2023-04-05T07:10:19;10.00;78.90
11264;DHT22;5689;48.798;9.070;2023-04-05T07:12:47;10.30;77.90
11264;DHT22;5689;48.798;9.070;2023-04-05T07:15:15;8.40;80.70
11264;DHT22;5689;48.798;9.070;2023-04-05T07:17:46;7.30;85.70
11264;DHT22;5689;48.798;9.070;2023-04-05T07:20:16;8.00;82.60
11264;DHT22;5689;48.798;9.070;2023-04-05T07:22:44;8.00;83.00
11264;DHT22;5689;48.798;9.070;2023-04-05T07:25:12;8.70;81.70
11264;DHT22;5689;48.798;9.070;2023-04-05T07:27:40;8.50;81.40
11264;DHT22;5689;48.798;9.070;2023-04-05T07:30:08;9.20;82.30
11264;DHT22;5689;48.798;9.070;2023-04-05T07:32:36;10.10;76.90
11264;DHT22;5689;48.798;9.070;2023-04-05T07:35:05;10.40;77.00
11264;DHT22;5689;48.798;9.070;2023-04-05T07:37:35;9.70;77.60
11264;DHT22;5689;48.798;9.070;2023-04-05T07:40:03;10.20;76.80
11264;DHT22;5689;48.798;9.070;2023-04-05T07:42:33;10.70;73.50
11264;DHT22;5689;48.798;9.070;2023-04-05T07:45:01;9.20;77.50
11264;DHT22;5689;48.798;9.070;2023-04-05T07:47:33;10.70;75.20
11264;DHT22;5689;48.798;9.070;2023-04-05T07:50:02;10.30;73.70
11264;DHT22;5689;48.798;9.070;2023-04-05T07:52:30;9.20;75.10
11264;DHT22;5689;48.798;9.070;2023-04-05T07:54:59;10.30;75.50
11264;DHT22;5689;48.798;9.070;2023-04-05T07:57:27;11.80;70.90
11264;DHT22;5689;48.798;9.070;2023-04-05T07:59:55;13.00;68.30
11264;DHT22;5689;48.798;9.070;2023-04-05T08:02:23;12.60;67.00
11264;DHT22;5689;48.798;9.070;2023-04-05T08:04:51;13.50;66.70
11264;DHT22;5689;48.798;9.070;2023-04-05T08:07:19;13.20;64.00
11264;DHT22;5689;48.798;9.070;2023-04-05T08:09:47;12.90;66.90
11264;DHT22;5689;48.798;9.070;2023-04-05T08:12:17;14.60;63.20
11264;DHT22;5689;48.798;9.070;2023-04-05T08:14:45;15.40;58.30
11264;DHT22;5689;48.798;9.070;2023-04-05T08:17:14;14.30;60.30
11264;DHT22;5689;48.798;9.070;2023-04-05T08:19:43;13.50;60.00
11264;DHT22;5689;48.798;9.070;2023-04-05T08:22:11;14.80;59.70
11264;DHT22;5689;48.798;9.070;2023-04-05T08:24:39;13.90;59.30
11264;DHT22;5689;48.798;9.070;2023-04-05T08:27:08;12.40;60.30
11264;DHT22;5689;48.798;9.070;2023-04-05T08:29:37;13.10;58.90
11264;DHT22;5689;48.798;9.070;2023-04-05T08:32:05;14.90;57.50
11264;DHT22;5689;48.798;9.070;2023-04-05T08:34:34;14.50;55.90
11264;DHT22;5689;48.798;9.070;2023-04-05T08:37:02;12.80;59.70
11264;DHT22;5689;48.798;9.070;2023-04-05T08:39:30;13.30;58.60
11264;DHT22;5689;48.798;9.070;2023-04-05T08:42:03;11.50;56.00
11264;DHT22;5689;48.798;9.070;2023-04-05T08:44:37;10.10;58.50
11264;DHT22;5689;48.798;9.070;2023-04-05T08:47:07;11.60;59.40
11264;DHT22;5689;48.798;9.070;2023-04-05T08:49:42;13.70;57.40
11264;DHT22;5689;48.798;9.070;2023-04-05T08:52:10;13.60;55.80
11264;DHT22;5689;48.798;9.070;2023-04-05T08:54:38;13.80;57.20
11264;DHT22;5689;48.798;9.070;2023-04-05T08:57:06;13.80;56.90
11264;DHT22;5689;48.798;9.070;2023-04-05T08:59:37;13.90;53.80
11264;DHT22;5689;48.798;9.070;2023-04-05T09:02:13;14.40;52.50
11264;DHT22;5689;48.798;9.070;2023-04-05T09:04:43;13.60;53.90
11264;DHT22;5689;48.798;9.070;2023-04-05T09:07:12;13.50;53.00
11264;DHT22;5689;48.798;9.070;2023-04-05T09:09:45;14.50;51.80
11264;DHT22;5689;48.798;9.070;2023-04-05T09:12:13;15.40;53.90
11264;DHT22;5689;48.798;9.070;2023-04-05T09:14:42;15.30;51.90
11264;DHT22;5689;48.798;9.070;2023-04-05T09:17:11;14.20;51.70
11264;DHT22;5689;48.798;9.070;2023-04-05T09:19:39;13.10;52.50
11264;DHT22;5689;48.798;9.070;2023-04-05T09:22:09;14.50;51.60
11264;DHT22;5689;48.798;9.070;2023-04-05T09:24:40;14.00;51.70
11264;DHT22;5689;48.798;9.070;2023-04-05T09:27:09;14.00;52.70
11264;DHT22;5689;48.798;9.070;2023-04-05T09:29:38;13.60;51.60
11264;DHT22;5689;48.798;9.070;2023-04-05T09:32:11;14.80;50.70
11264;DHT22;5689;48.798;9.070;2023-04-05T09:34:39;14.70;51.20
11264;DHT22;5689;48.798;9.070;2023-04-05T09:37:21;12.60;53.40
11264;DHT22;5689;48.798;9.070;2023-04-05T09:39:50;13.50;52.60
11264;DHT22;5689;48.798;9.070;2023-04-05T09:42:31;12.80;50.60
11264;DHT22;5689;48.798;9.070;2023-04-05T09:45:09;13.30;53.50
11264;DHT22;5689;48.798;9.070;2023-04-05T09:47:56;13.80;52.00
11264;DHT22;5689;48.798;9.070;2023-04-05T09:50:24;15.20;50.20
11264;DHT22;5689;48.798;9.070;2023-04-05T09:53:05;14.40;50.50
11264;DHT22;5689;48.798;9.070;2023-04-05T09:55:34;15.50;50.40
11264;DHT22;5689;48.798;9.070;2023-04-05T09:58:02;16.90;48.70
11264;DHT22;5689;48.798;9.070;2023-04-05T10:00:31;14.60;49.60
11264;DHT22;5689;48.798;9.070;2023-04-05T10:03:00;15.10;50.50
11264;DHT22;5689;48.798;9.070;2023-04-05T10:05:28;14.80;49.40
11264;DHT22;5689;48.798;9.070;2023-04-05T10:07:58;15.00;48.90
11264;DHT22;5689;48.798;9.070;2023-04-05T10:10:30;14.90;50.00
11264;DHT22;5689;48.798;9.070;2023-04-05T10:13:04;13.50;49.70
11264;DHT22;5689;48.798;9.070;2023-04-05T10:15:32;12.70;49.70
11264;DHT22;5689;48.798;9.070;2023-04-05T10:18:06;12.60;54.50
11264;DHT22;5689;48.798;9.070;2023-04-05T10:20:38;13.70;50.20
11264;DHT22;5689;48.798;9.070;2023-04-05T10:23:08;15.10;50.80
11264;DHT22;5689;48.798;9.070;2023-04-05T10:25:49;16.60;48.10
11264;DHT22;5689;48.798;9.070;2023-04-05T10:28:28;17.10;48.50
11264;DHT22;5689;48.798;9.070;2023-04-05T10:31:01;16.70;45.50
11264;DHT22;5689;48.798;9.070;2023-04-05T10:33:39;16.80;49.00
11264;DHT22;5689;48.798;9.070;2023-04-05T10:36:14;15.90;50.10
11264;DHT22;5689;48.798;9.070;2023-04-05T10:38:50;17.10;46.00
11264;DHT22;5689;48.798;9.070;2023-04-05T10:41:24;13.70;49.30
11264;DHT22;5689;48.798;9.070;2023-04-05T10:43:55;16.60;48.40
11264;DHT22;5689;48.798;9.070;2023-04-05T10:46:23;15.40;45.00
11264;DHT22;5689;48.798;9.070;2023-04-05T10:49:00;17.40;47.10
11264;DHT22;5689;48.798;9.070;2023-04-05T10:51:31;17.10;45.50
11264;DHT22;5689;48.798;9.070;2023-04-05T10:54:00;18.60;44.90
11264;DHT22;5689;48.798;9.070;2023-04-05T10:56:28;19.30;45.20
11264;DHT22;5689;48.798;9.070;2023-04-05T10:58:57;18.60;44.80
11264;DHT22;5689;48.798;9.070;2023-04-05T11:01:26;18.90;44.50
11264;DHT22;5689;48.798;9.070;2023-04-05T11:04:09;16.90;43.30
11264;DHT22;5689;48.798;9.070;2023-04-05T11:06:38;17.50;45.60
11264;DHT22;5689;48.798;9.070;2023-04-05T11:11:55;14.80;48.30
11264;DHT22;5689;48.798;9.070;2023-04-05T11:14:24;15.50;48.50
11264;DHT22;5689;48.798;9.070;2023-04-05T11:16:53;17.20;46.50
11264;DHT22;5689;48.798;9.070;2023-04-05T11:19:49;17.70;43.70
11264;DHT22;5689;48.798;9.070;2023-04-05T11:22:26;19.10;43.70
11264;DHT22;5689;48.798;9.070;2023-04-05T11:24:56;15.80;46.70
11264;DHT22;5689;48.798;9.070;2023-04-05T11:27:24;14.80;49.40
11264;DHT22;5689;48.798;9.070;2023-04-05T11:29:54;15.00;50.50
11264;DHT22;5689;48.798;9.070;2023-04-05T11:32:22;17.40;47.20
11264;DHT22;5689;48.798;9.070;2023-04-05T11:35:00;14.70;48.30
11264;DHT22;5689;48.798;9.070;2023-04-05T11:37:54;13.40;50.30
11264;DHT22;5689;48.798;9.070;2023-04-05T11:40:27;15.00;48.90
11264;DHT22;5689;48.798;9.070;2023-04-05T11:43:02;17.10;47.40
11264;DHT22;5689;48.798;9.070;2023-04-05T11:45:33;16.00;46.10
11264;DHT22;5689;48.798;9.070;2023-04-05T11:48:04;15.60;46.80
11264;DHT22;5689;48.798;9.070;2023-04-05T11:50:35;16.00;48.30
11264;DHT22;5689;48.798;9.070;2023-04-05T11:53:07;17.80;46.30
11264;DHT22;5689;48.798;9.070;2023-04-05T11:55:36;19.40;42.20
11264;DHT22;5689;48.798;9.070;2023-04-05T11:58:15;18.40;42.60
11264;DHT22;5689;48.798;9.070;2023-04-05T12:00:44;14.40;47.30
11264;DHT22;5689;48.798;9.070;2023-04-05T12:03:13;17.80;45.40
11264;DHT22;5689;48.798;9.070;2023-04-05T12:05:48;15.50;47.90
11264;DHT22;5689;48.798;9.070;2023-04-05T12:08:16;15.00;48.90
11264;DHT22;5689;48.798;9.070;2023-04-05T12:10:52;14.80;47.50
11264;DHT22;5689;48.798;9.070;2023-04-05T12:13:25;15.60;49.60
11264;DHT22;5689;48.798;9.070;2023-04-05T12:15:56;15.60;45.90
11264;DHT22;5689;48.798;9.070;2023-04-05T12:18:25;18.20;46.60
11264;DHT22;5689;48.798;9.070;2023-04-05T12:20:56;15.30;46.90
11264;DHT22;5689;48.798;9.070;2023-04-05T12:23:24;16.50;47.70
11264;DHT22;5689;48.798;9.070;2023-04-05T12:25:54;15.70;45.50
11264;DHT22;5689;48.798;9.070;2023-04-05T12:28:23;15.40;45.60
11264;DHT22;5689;48.798;9.070;2023-04-05T12:30:52;16.60;45.20
11264;DHT22;5689;48.798;9.070;2023-04-05T12:33:25;17.70;47.20
11264;DHT22;5689;48.798;9.070;2023-04-05T12:35:55;18.90;44.50
11264;DHT22;5689;48.798;9.070;2023-04-05T12:38:25;19.10;43.40
11264;DHT22;5689;48.798;9.070;2023-04-05T12:40:56;18.90;42.50
11264;DHT22;5689;48.798;9.070;2023-04-05T12:43:36;19.10;43.80
11264;DHT22;5689;48.798;9.070;2023-04-05T12:46:07;18.10;45.80
11264;DHT22;5689;48.798;9.070;2023-04-05T12:48:36;17.50;43.40
11264;DHT22;5689;48.798;9.070;2023-04-05T12:51:14;17.30;43.70
11264;DHT22;5689;48.798;9.070;2023-04-05T12:53:46;15.90;47.10
11264;DHT22;5689;48.798;9.070;2023-04-05T12:56:15;15.10;48.30
11264;DHT22;5689;48.798;9.070;2023-04-05T12:58:48;18.00;46.10
11264;DHT22;5689;48.798;9.070;2023-04-05T13:01:17;17.10;45.40
11264;DHT22;5689;48.798;9.070;2023-04-05T13:03:46;16.80;45.30
11264;DHT22;5689;48.798;9.070;2023-04-05T13:06:16;16.30;46.80
11264;DHT22;5689;48.798;9.070;2023-04-05T13:08:44;16.10;47.00
11264;DHT22;5689;48.798;9.070;2023-04-05T13:11:12;15.40;47.30
11264;DHT22;5689;48.798;9.070;2023-04-05T13:13:41;16.90;44.70
11264;DHT22;5689;48.798;9.070;2023-04-05T13:16:09;17.70;45.80
11264;DHT22;5689;48.798;9.070;2023-04-05T13:18:37;18.80;43.50
11264;DHT22;5689;48.798;9.070;2023-04-05T13:21:05;17.50;45.20
11264;DHT22;5689;48.798;9.070;2023-04-05T13:23:38;17.30;45.00
11264;DHT22;5689;48.798;9.070;2023-04-05T13:26:07;19.40;44.10
11264;DHT22;5689;48.798;9.070;2023-04-05T13:28:35;18.00;44.80
11264;DHT22;5689;48.798;9.070;2023-04-05T13:31:03;20.20;41.60
11264;DHT22;5689;48.798;9.070;2023-04-05T13:33:33;19.00;42.30
11264;DHT22;5689;48.798;9.070;2023-04-05T13:36:02;18.30;44.10
11264;DHT22;5689;48.798;9.070;2023-04-05T13:38:30;17.20;46.70
11264;DHT22;5689;48.798;9.070;2023-04-05T13:40:59;17.00;46.20
11264;DHT22;5689;48.798;9.070;2023-04-05T13:43:27;18.90;46.20
11264;DHT22;5689;48.798;9.070;2023-04-05T13:45:57;22.60;42.50
11264;DHT22;5689;48.798;9.070;2023-04-05T13:48:25;22.00;40.60
11264;DHT22;5689;48.798;9.070;2023-04-05T13:50:53;21.80;40.00
11264;DHT22;5689;48.798;9.070;2023-04-05T13:53:21;21.30;40.80
11264;DHT22;5689;48.798;9.070;2023-04-05T13:55:49;19.20;42.20
11264;DHT22;5689;48.798;9.070;2023-04-05T13:58:18;17.30;42.70
11264;DHT22;5689;48.798;9.070;2023-04-05T14:00:46;16.80;43.90
11264;DHT22;5689;48.798;9.070;2023-04-05T14:03:14;19.00;43.40
11264;DHT22;5689;48.798;9.070;2023-04-05T14:05:42;18.20;41.90
11264;DHT22;5689;48.798;9.070;2023-04-05T14:08:12;21.50;40.70
11264;DHT22;5689;48.798;9.070;2023-04-05T14:10:40;16.00;42.40
11264;DHT22;5689;48.798;9.070;2023-04-05T14:13:08;17.20;43.40
11264;DHT22;5689;48.798;9.070;2023-04-05T14:15:38;16.90;44.20
11264;DHT22;5689;48.798;9.070;2023-04-05T14:18:06;16.20;45.50
11264;DHT22;5689;48.798;9.070;2023-04-05T14:20:34;19.40;41.80
11264;DHT22;5689;48.798;9.070;2023-04-05T14:23:02;21.90;40.80
11264;DHT22;5689;48.798;9.070;2023-04-05T14:25:31;19.50;41.00
11264;DHT22;5689;48.798;9.070;2023-04-05T14:27:59;19.20;42.20
11264;DHT22;5689;48.798;9.070;2023-04-05T14:30:27;18.90;41.60
11264;DHT22;5689;48.798;9.070;2023-04-05T14:32:56;20.40;41.60
11264;DHT22;5689;48.798;9.070;2023-04-05T14:35:25;21.50;39.80
11264;DHT22;5689;48.798;9.070;2023-04-05T14:37:53;18.50;41.80
11264;DHT22;5689;48.798;9.070;2023-04-05T14:40:21;15.60;44.60
11264;DHT22;5689;48.798;9.070;2023-04-05T14:42:49;15.10;46.10
11264;DHT22;5689;48.798;9.070;2023-04-05T14:45:17;16.20;44.60
11264;DHT22;5689;48.798;9.070;2023-04-05T14:47:45;16.80;43.70
11264;DHT22;5689;48.798;9.070;2023-04-05T14:50:14;15.50;45.00
11264;DHT22;5689;48.798;9.070;2023-04-05T14:52:42;18.20;41.90
11264;DHT22;5689;48.798;9.070;2023-04-05T14:55:11;19.60;40.20
11264;DHT22;5689;48.798;9.070;2023-04-05T14:57:39;21.60;39.00
11264;DHT22;5689;48.798;9.070;2023-04-05T15:00:09;19.80;39.70
11264;DHT22;5689;48.798;9.070;2023-04-05T15:02:37;20.10;38.70
11264;DHT22;5689;48.798;9.070;2023-04-05T15:05:06;18.70;40.20
11264;DHT22;5689;48.798;9.070;2023-04-05T15:07:35;19.70;38.80
11264;DHT22;5689;48.798;9.070;2023-04-05T15:10:04;19.90;39.30
11264;DHT22;5689;48.798;9.070;2023-04-05T15:12:32;18.10;42.10
11264;DHT22;5689;48.798;9.070;2023-04-05T15:15:00;19.90;39.70
11264;DHT22;5689;48.798;9.070;2023-04-05T15:17:28;17.20;38.60
11264;DHT22;5689;48.798;9.070;2023-04-05T15:19:56;17.90;40.50
11264;DHT22;5689;48.798;9.070;2023-04-05T15:22:24;15.80;42.80
11264;DHT22;5689;48.798;9.070;2023-04-05T15:24:54;17.00;42.60
11264;DHT22;5689;48.798;9.070;2023-04-05T15:27:22;17.80;41.60
11264;DHT22;5689;48.798;9.070;2023-04-05T15:29:50;19.70;38.90
11264;DHT22;5689;48.798;9.070;2023-04-05T15:32:18;17.60;40.80
11264;DHT22;5689;48.798;9.070;2023-04-05T15:34:46;16.30;40.00
11264;DHT22;5689;48.798;9.070;2023-04-05T15:37:14;17.40;41.50
11264;DHT22;5689;48.798;9.070;2023-04-05T15:39:42;15.80;43.40
11264;DHT22;5689;48.798;9.070;2023-04-05T15:42:11;15.40;43.70
11264;DHT22;5689;48.798;9.070;2023-04-05T15:44:41;16.30;44.60
11264;DHT22;5689;48.798;9.070;2023-04-05T15:47:09;16.30;43.30
11264;DHT22;5689;48.798;9.070;2023-04-05T15:49:37;15.50;44.90
11264;DHT22;5689;48.798;9.070;2023-04-05T15:52:05;18.30;42.70
11264;DHT22;5689;48.798;9.070;2023-04-05T15:54:34;15.80;44.20
11264;DHT22;5689;48.798;9.070;2023-04-05T15:57:02;16.40;43.80
11264;DHT22;5689;48.798;9.070;2023-04-05T15:59:31;17.40;42.10
11264;DHT22;5689;48.798;9.070;2023-04-05T16:01:59;16.10;41.40
11264;DHT22;5689;48.798;9.070;2023-04-05T16:04:28;16.40;42.70
11264;DHT22;5689;48.798;9.070;2023-04-05T16:06:56;17.00;42.90
11264;DHT22;5689;48.798;9.070;2023-04-05T16:09:24;15.50;44.40
11264;DHT22;5689;48.798;9.070;2023-04-05T16:11:52;15.50;44.00
11264;DHT22;5689;48.798;9.070;2023-04-05T16:14:21;16.80;41.80
11264;DHT22;5689;48.798;9.070;2023-04-05T16:16:50;14.70;45.10
11264;DHT22;5689;48.798;9.070;2023-04-05T16:19:19;13.80;46.10